Time;durP1;ratioP1;P1;durP2;ratioP2;P2;SDS_P1;SDS_P2;PMS_P1;PMS_P2;Temp;Humidity;BMP_temperature;BMP_pressure;BME280_temperature;BME280_humidity;BME280_pressure;Samples;Min_cycle;Max_cycle;Signal;HPM_P1;HPM_P2
2023/11/28 00:00:14;;;;;;;4.83;4.03;;;;;;;;;;5005422;28;20686;-66
2023/11/28 00:02:39;;;;;;;5.67;4.40;;;;;;;;;;5020609;28;20198;-66
2023/11/28 00:05:05;;;;;;;4.80;3.83;;;;;;;;;;5026109;28;20197;-66
2023/11/28 00:07:33;;;;;;;5.27;4.37;;;;;;;;;;5020664;28;20261;-67
2023/11/28 00:09:58;;;;;;;5.53;3.80;;;;;;;;;;5027093;28;20692;-66
2023/11/28 00:12:24;;;;;;;4.90;4.37;;;;;;;;;;5023840;28;20194;-66
2023/11/28 00:14:49;;;;;;;4.93;3.97;;;;;;;;;;5027810;28;20196;-67
2023/11/28 00:17:14;;;;;;;6.27;4.93;;;;;;;;;;5025857;28;20178;-66
2023/11/28 00:19:39;;;;;;;6.73;5.23;;;;;;;;;;5017487;28;20188;-67
2023/11/28 00:22:05;;;;;;;7.43;5.40;;;;;;;;;;5030944;28;20719;-67
2023/11/28 00:24:30;;;;;;;7.77;5.90;;;;;;;;;;5029376;28;20178;-67
2023/11/28 00:26:55;;;;;;;8.30;6.60;;;;;;;;;;5024274;28;20183;-67
2023/11/28 00:29:21;;;;;;;7.60;6.10;;;;;;;;;;5027031;28;20198;-66
2023/11/28 00:31:46;;;;;;;6.20;5.17;;;;;;;;;;5027203;28;20213;-66
2023/11/28 00:34:11;;;;;;;8.67;6.27;;;;;;;;;;5027406;28;20220;-67
2023/11/28 00:36:37;;;;;;;8.77;6.40;;;;;;;;;;5019258;28;20179;-67
2023/11/28 00:39:03;;;;;;;8.87;7.33;;;;;;;;;;5021269;28;20293;-66
2023/11/28 00:41:28;;;;;;;11.70;8.33;;;;;;;;;;5024387;28;20293;-66
2023/11/28 00:43:55;;;;;;;11.63;7.87;;;;;;;;;;5026775;28;20961;-67
2023/11/28 00:46:20;;;;;;;10.97;8.30;;;;;;;;;;5012477;28;20209;-66
2023/11/28 00:48:47;;;;;;;9.33;6.73;;;;;;;;;;5028652;28;20565;-66
2023/11/28 00:51:14;;;;;;;10.30;6.87;;;;;;;;;;5028114;28;20185;-67
2023/11/28 00:53:39;;;;;;;9.67;7.33;;;;;;;;;;5023561;28;20179;-66
2023/11/28 00:56:05;;;;;;;8.77;7.10;;;;;;;;;;5022215;28;20171;-66
2023/11/28 00:58:30;;;;;;;8.50;6.27;;;;;;;;;;5030509;28;20186;-66
2023/11/28 01:00:55;;;;;;;8.67;6.40;;;;;;;;;;5029693;28;20539;-66
2023/11/28 01:03:21;;;;;;;8.90;6.80;;;;;;;;;;5011615;28;20189;-66
2023/11/28 01:05:46;;;;;;;7.43;5.67;;;;;;;;;;5029791;28;20696;-67
2023/11/28 01:08:11;;;;;;;9.10;6.53;;;;;;;;;;5029043;28;20855;-67
2023/11/28 01:10:37;;;;;;;9.37;6.37;;;;;;;;;;5028483;28;20276;-67
2023/11/28 01:13:02;;;;;;;7.57;5.63;;;;;;;;;;5000100;28;20583;-66
2023/11/28 01:15:27;;;;;;;9.27;6.43;;;;;;;;;;5024105;28;20261;-66
2023/11/28 01:17:52;;;;;;;8.87;5.87;;;;;;;;;;5033604;28;20174;-66
2023/11/28 01:20:17;;;;;;;7.63;5.93;;;;;;;;;;5030232;28;20598;-66
2023/11/28 01:22:43;;;;;;;9.17;6.13;;;;;;;;;;5026417;28;20206;-67
2023/11/28 01:25:08;;;;;;;7.63;5.13;;;;;;;;;;5029451;28;20195;-66
2023/11/28 01:27:34;;;;;;;7.40;5.50;;;;;;;;;;5011634;28;20186;-67
2023/11/28 01:29:59;;;;;;;8.13;5.83;;;;;;;;;;5020159;28;20203;-66
2023/11/28 01:32:24;;;;;;;6.73;5.37;;;;;;;;;;5025106;28;20292;-67
2023/11/28 01:34:49;;;;;;;7.97;6.27;;;;;;;;;;5029164;28;20249;-66
2023/11/28 01:37:17;;;;;;;7.13;5.57;;;;;;;;;;5029810;28;20261;-66
2023/11/28 01:39:43;;;;;;;7.97;5.97;;;;;;;;;;5013982;28;20231;-66
2023/11/28 01:42:08;;;;;;;11.20;6.50;;;;;;;;;;5029169;28;20780;-65
2023/11/28 01:44:33;;;;;;;9.87;6.13;;;;;;;;;;5028550;28;20244;-66
2023/11/28 01:46:59;;;;;;;8.17;5.23;;;;;;;;;;5032703;28;20180;-67
2023/11/28 01:49:24;;;;;;;8.00;5.47;;;;;;;;;;5019728;28;20206;-67
2023/11/28 01:51:49;;;;;;;8.33;5.50;;;;;;;;;;5031308;28;20217;-66
2023/11/28 01:54:14;;;;;;;7.00;4.70;;;;;;;;;;5031477;28;20237;-66
2023/11/28 01:56:40;;;;;;;7.57;5.47;;;;;;;;;;5029156;28;20181;-66
2023/11/28 01:59:07;;;;;;;6.77;5.43;;;;;;;;;;5027574;28;20179;-66
2023/11/28 02:01:32;;;;;;;6.37;4.93;;;;;;;;;;5030092;28;20194;-66
2023/11/28 02:03:58;;;;;;;7.73;5.60;;;;;;;;;;5028082;28;20649;-66
2023/11/28 02:06:23;;;;;;;7.80;5.70;;;;;;;;;;5022714;28;20171;-66
2023/11/28 02:08:48;;;;;;;7.97;5.43;;;;;;;;;;5023463;28;20186;-66
2023/11/28 02:11:13;;;;;;;10.00;5.30;;;;;;;;;;5029691;28;20208;-67
2023/11/28 02:13:38;;;;;;;6.63;5.07;;;;;;;;;;5030733;28;20638;-67
2023/11/28 02:16:13;;;;;;;7.37;5.53;;;;;;;;;;5029009;28;20170;-66
2023/11/28 02:18:39;;;;;;;7.13;5.07;;;;;;;;;;5030239;28;20170;-66
2023/11/28 02:21:05;;;;;;;7.27;5.03;;;;;;;;;;5028672;28;20707;-66
2023/11/28 02:23:32;;;;;;;6.77;5.03;;;;;;;;;;5011211;28;20257;-66
2023/11/28 02:26:00;;;;;;;9.60;5.37;;;;;;;;;;5021519;28;20193;-66
2023/11/28 02:28:26;;;;;;;9.37;5.73;;;;;;;;;;5021762;28;21213;-66
2023/11/28 02:30:56;;;;;;;8.80;5.30;;;;;;;;;;5012384;28;20329;-65
2023/11/28 02:33:21;;;;;;;7.20;5.30;;;;;;;;;;5016976;28;20247;-66
2023/11/28 02:35:46;;;;;;;10.23;5.30;;;;;;;;;;5015982;28;20179;-65
2023/11/28 02:38:13;;;;;;;7.00;5.40;;;;;;;;;;5012273;28;20192;-66
2023/11/28 02:40:38;;;;;;;7.37;5.20;;;;;;;;;;5008402;28;20186;-66
2023/11/28 02:43:03;;;;;;;6.23;4.90;;;;;;;;;;4992240;28;20291;-65
2023/11/28 02:45:28;;;;;;;9.13;5.03;;;;;;;;;;5011358;28;20183;-66
2023/11/28 02:47:53;;;;;;;8.17;4.53;;;;;;;;;;5012035;28;20269;-66
2023/11/28 02:50:19;;;;;;;7.13;4.70;;;;;;;;;;5015840;28;20206;-66
2023/11/28 02:52:44;;;;;;;6.83;4.47;;;;;;;;;;5011603;28;20287;-67
2023/11/28 02:55:09;;;;;;;6.63;4.37;;;;;;;;;;5011304;28;20276;-67
2023/11/28 02:57:35;;;;;;;6.47;4.13;;;;;;;;;;5012963;28;20182;-67
2023/11/28 03:00:00;;;;;;;6.17;4.47;;;;;;;;;;4991900;28;20199;-67
2023/11/28 03:02:26;;;;;;;7.17;4.57;;;;;;;;;;5015434;28;20602;-67
2023/11/28 03:04:51;;;;;;;6.47;4.53;;;;;;;;;;5012487;28;20932;-67
2023/11/28 03:07:16;;;;;;;4.70;3.80;;;;;;;;;;5013327;28;20273;-67
2023/11/28 03:09:42;;;;;;;5.57;4.00;;;;;;;;;;5011113;28;20258;-67
2023/11/28 03:12:08;;;;;;;6.03;4.27;;;;;;;;;;5010999;28;20198;-67
2023/11/28 03:14:33;;;;;;;5.67;3.80;;;;;;;;;;5011288;28;20525;-67
2023/11/28 03:16:58;;;;;;;4.83;3.70;;;;;;;;;;5011000;28;20181;-67
2023/11/28 03:19:24;;;;;;;5.43;3.57;;;;;;;;;;5013860;28;20601;-67
2023/11/28 03:21:49;;;;;;;5.70;3.63;;;;;;;;;;5012953;28;20316;-67
2023/11/28 03:24:14;;;;;;;4.43;3.10;;;;;;;;;;5010709;28;20190;-67
2023/11/28 03:26:39;;;;;;;5.03;3.10;;;;;;;;;;5010571;28;21011;-67
2023/11/28 03:29:05;;;;;;;5.93;3.60;;;;;;;;;;5011231;28;20573;-67
2023/11/28 03:31:30;;;;;;;6.27;3.23;;;;;;;;;;5011509;28;20206;-67
2023/11/28 03:33:55;;;;;;;4.07;2.73;;;;;;;;;;5012925;28;20170;-67
2023/11/28 03:36:20;;;;;;;2.13;1.63;;;;;;;;;;5010919;28;20178;-67
2023/11/28 03:38:47;;;;;;;3.20;2.20;;;;;;;;;;5010726;28;20321;-67
2023/11/28 03:41:13;;;;;;;4.73;2.07;;;;;;;;;;5010531;28;20181;-67
2023/11/28 03:43:38;;;;;;;3.63;2.10;;;;;;;;;;5012095;28;20254;-67
2023/11/28 03:46:03;;;;;;;4.87;2.10;;;;;;;;;;5010395;28;20191;-67
2023/11/28 03:48:28;;;;;;;2.63;2.00;;;;;;;;;;5011583;28;20209;-67
2023/11/28 03:50:53;;;;;;;2.67;1.80;;;;;;;;;;5010848;28;20197;-67
2023/11/28 03:53:19;;;;;;;4.20;2.20;;;;;;;;;;5010578;28;20281;-68
2023/11/28 03:55:44;;;;;;;4.63;2.17;;;;;;;;;;5010505;28;20181;-67
2023/11/28 03:58:09;;;;;;;2.30;1.67;;;;;;;;;;5014336;28;20598;-67
2023/11/28 04:00:34;;;;;;;2.00;1.53;;;;;;;;;;5010397;28;20618;-68
2023/11/28 04:02:59;;;;;;;4.23;2.30;;;;;;;;;;5018495;28;20198;-67
2023/11/28 04:05:25;;;;;;;3.30;1.83;;;;;;;;;;5009477;28;20197;-68
2023/11/28 04:07:50;;;;;;;2.47;1.90;;;;;;;;;;5010734;28;20233;-67
2023/11/28 04:10:15;;;;;;;2.10;1.60;;;;;;;;;;5010394;28;20325;-68
2023/11/28 04:12:40;;;;;;;2.57;1.87;;;;;;;;;;5009871;28;20263;-67
2023/11/28 04:15:06;;;;;;;2.00;1.43;;;;;;;;;;5009552;28;20859;-68
2023/11/28 04:17:31;;;;;;;3.67;1.73;;;;;;;;;;5009612;28;20178;-68
2023/11/28 04:19:57;;;;;;;1.53;1.20;;;;;;;;;;5011367;28;20306;-68
2023/11/28 04:22:22;;;;;;;2.43;1.40;;;;;;;;;;5012979;28;20750;-67
2023/11/28 04:24:47;;;;;;;1.47;1.13;;;;;;;;;;5015023;28;20209;-67
2023/11/28 04:27:12;;;;;;;1.40;1.20;;;;;;;;;;5013895;28;20178;-67
2023/11/28 04:29:38;;;;;;;2.73;1.53;;;;;;;;;;5013914;28;20212;-67
2023/11/28 04:32:03;;;;;;;2.63;1.27;;;;;;;;;;5033575;28;20233;-67
2023/11/28 04:34:28;;;;;;;2.10;1.80;;;;;;;;;;5030819;28;20201;-67
2023/11/28 04:36:53;;;;;;;2.83;1.50;;;;;;;;;;5033293;28;20204;-67
2023/11/28 04:39:19;;;;;;;2.50;1.37;;;;;;;;;;5032995;28;20197;-67
2023/11/28 04:41:44;;;;;;;2.03;1.20;;;;;;;;;;5034665;28;20200;-67
2023/11/28 04:44:09;;;;;;;1.93;1.63;;;;;;;;;;5034404;28;20190;-67
2023/11/28 04:46:35;;;;;;;2.63;1.33;;;;;;;;;;5034131;28;20178;-67
2023/11/28 04:49:00;;;;;;;3.17;1.60;;;;;;;;;;5033850;28;20265;-67
2023/11/28 04:51:25;;;;;;;2.97;1.50;;;;;;;;;;5034056;28;20210;-67
2023/11/28 04:53:50;;;;;;;3.73;1.30;;;;;;;;;;5034032;28;20177;-68
2023/11/28 04:56:16;;;;;;;2.43;1.70;;;;;;;;;;5030755;28;20595;-68
2023/11/28 04:58:41;;;;;;;4.13;1.40;;;;;;;;;;5033040;28;20261;-68
2023/11/28 05:01:06;;;;;;;2.37;1.73;;;;;;;;;;5033235;28;20189;-67
2023/11/28 05:03:32;;;;;;;2.23;1.73;;;;;;;;;;5021345;28;20186;-68
2023/11/28 05:05:57;;;;;;;2.47;2.07;;;;;;;;;;5013322;28;20198;-67
2023/11/28 05:08:23;;;;;;;2.23;1.50;;;;;;;;;;5013481;28;20213;-68
2023/11/28 05:10:48;;;;;;;1.73;1.47;;;;;;;;;;5013765;28;21021;-68
2023/11/28 05:13:13;;;;;;;2.27;1.50;;;;;;;;;;5012936;28;20194;-68
2023/11/28 05:15:38;;;;;;;2.60;1.33;;;;;;;;;;5013617;28;20182;-67
2023/11/28 05:18:04;;;;;;;2.20;1.50;;;;;;;;;;5015552;28;20269;-68
2023/11/28 05:20:29;;;;;;;2.53;1.63;;;;;;;;;;5026663;28;20261;-67
2023/11/28 05:22:56;;;;;;;1.23;0.97;;;;;;;;;;5022703;28;20206;-67
2023/11/28 05:25:21;;;;;;;2.20;1.40;;;;;;;;;;5025539;28;20697;-68
2023/11/28 05:27:46;;;;;;;2.30;1.60;;;;;;;;;;5026729;28;20294;-67
2023/11/28 05:30:11;;;;;;;3.53;1.50;;;;;;;;;;5031237;28;20255;-67
2023/11/28 05:32:37;;;;;;;2.03;1.70;;;;;;;;;;5027674;28;20271;-68
2023/11/28 05:35:02;;;;;;;2.23;1.30;;;;;;;;;;5021715;28;20669;-68
2023/11/28 05:37:29;;;;;;;2.27;1.50;;;;;;;;;;5024363;28;20187;-68
2023/11/28 05:39:54;;;;;;;2.37;1.67;;;;;;;;;;5025335;28;20186;-68
2023/11/28 05:42:20;;;;;;;2.93;1.30;;;;;;;;;;5026141;28;20218;-68
2023/11/28 05:44:45;;;;;;;4.30;1.10;;;;;;;;;;5025861;28;20179;-68
2023/11/28 05:47:10;;;;;;;2.13;1.50;;;;;;;;;;5026157;28;20186;-68
2023/11/28 05:49:35;;;;;;;1.80;1.60;;;;;;;;;;5021696;28;20199;-67
2023/11/28 05:52:01;;;;;;;3.10;1.33;;;;;;;;;;5027649;28;20300;-68
2023/11/28 05:54:28;;;;;;;2.57;1.30;;;;;;;;;;5006967;28;20222;-67
2023/11/28 05:56:53;;;;;;;3.10;1.17;;;;;;;;;;5024349;28;20884;-68
2023/11/28 05:59:19;;;;;;;1.50;1.20;;;;;;;;;;5028027;28;20186;-68
2023/11/28 06:02:00;;;;;;;3.27;1.93;;;;;;;;;;5027771;28;20297;-68
2023/11/28 06:04:25;;;;;;;2.70;1.47;;;;;;;;;;5026564;28;20189;-68
2023/11/28 06:06:51;;;;;;;3.63;1.60;;;;;;;;;;5026568;28;20182;-68
2023/11/28 06:09:16;;;;;;;1.70;1.60;;;;;;;;;;5026015;28;20215;-68
2023/11/28 06:11:41;;;;;;;1.47;1.10;;;;;;;;;;5023091;28;20198;-68
2023/11/28 06:14:06;;;;;;;1.47;1.27;;;;;;;;;;5021337;28;20193;-68
2023/11/28 06:16:32;;;;;;;2.50;1.67;;;;;;;;;;5020008;28;20599;-68
2023/11/28 06:18:57;;;;;;;1.53;1.40;;;;;;;;;;5014425;28;20239;-68
2023/11/28 06:21:22;;;;;;;2.27;1.63;;;;;;;;;;5011020;28;20206;-66
2023/11/28 06:23:47;;;;;;;2.93;1.57;;;;;;;;;;5012756;28;20189;-67
2023/11/28 06:26:12;;;;;;;4.13;1.40;;;;;;;;;;5012913;28;20252;-67
2023/11/28 06:28:38;;;;;;;2.80;1.50;;;;;;;;;;5008850;28;20590;-67
2023/11/28 06:31:03;;;;;;;2.63;1.83;;;;;;;;;;5014972;28;20198;-67
2023/11/28 06:33:28;;;;;;;3.63;1.33;;;;;;;;;;5020369;28;20174;-67
2023/11/28 06:35:53;;;;;;;1.67;1.57;;;;;;;;;;5014680;28;20650;-67
2023/11/28 06:38:19;;;;;;;1.27;1.17;;;;;;;;;;5013285;28;20186;-67
2023/11/28 06:40:44;;;;;;;3.50;1.40;;;;;;;;;;5015855;28;20212;-67
2023/11/28 06:43:10;;;;;;;2.43;1.60;;;;;;;;;;5011971;28;20248;-68
2023/11/28 06:45:35;;;;;;;2.00;1.47;;;;;;;;;;5013143;28;20189;-67
2023/11/28 06:48:01;;;;;;;2.37;1.50;;;;;;;;;;5010953;28;20183;-68
2023/11/28 06:50:26;;;;;;;2.13;1.53;;;;;;;;;;5011497;28;20209;-67
2023/11/28 06:52:51;;;;;;;4.37;1.40;;;;;;;;;;5014340;28;20210;-68
2023/11/28 06:55:16;;;;;;;3.13;1.70;;;;;;;;;;5011766;28;20186;-68
2023/11/28 06:57:41;;;;;;;3.43;1.80;;;;;;;;;;5014178;28;20961;-68
2023/11/28 07:00:07;;;;;;;3.93;1.60;;;;;;;;;;4993432;28;20309;-67
2023/11/28 07:02:35;;;;;;;2.27;1.37;;;;;;;;;;5015195;28;20636;-67
2023/11/28 07:05:00;;;;;;;3.10;1.73;;;;;;;;;;5011221;28;20186;-67
2023/11/28 07:07:26;;;;;;;3.93;1.73;;;;;;;;;;5009667;28;20183;-67
2023/11/28 07:09:51;;;;;;;2.53;1.50;;;;;;;;;;5010328;28;20202;-67
2023/11/28 07:12:16;;;;;;;2.13;1.93;;;;;;;;;;5010435;28;20233;-67
2023/11/28 07:14:41;;;;;;;4.03;1.63;;;;;;;;;;5010511;28;20170;-67
2023/11/28 07:17:06;;;;;;;2.73;1.93;;;;;;;;;;5018338;28;20912;-67
2023/11/28 07:19:32;;;;;;;4.33;1.63;;;;;;;;;;5026057;28;21335;-67
2023/11/28 07:21:57;;;;;;;3.67;2.20;;;;;;;;;;5025415;28;20628;-67
2023/11/28 07:24:22;;;;;;;4.17;1.90;;;;;;;;;;5022224;28;20446;-67
2023/11/28 07:26:47;;;;;;;4.17;1.80;;;;;;;;;;5028033;28;21013;-67
2023/11/28 07:29:12;;;;;;;3.70;2.37;;;;;;;;;;5027765;28;20198;-68
2023/11/28 07:31:38;;;;;;;3.03;2.00;;;;;;;;;;5028020;28;20209;-67
2023/11/28 07:34:04;;;;;;;3.97;2.13;;;;;;;;;;5027019;28;20281;-67
2023/11/28 07:36:29;;;;;;;2.90;1.90;;;;;;;;;;5029194;28;20418;-67
2023/11/28 07:38:55;;;;;;;3.17;1.77;;;;;;;;;;5029357;28;20255;-67
2023/11/28 07:41:20;;;;;;;2.03;1.80;;;;;;;;;;5026890;28;20226;-67
2023/11/28 07:43:45;;;;;;;3.20;2.07;;;;;;;;;;5028311;28;20665;-67
2023/11/28 07:46:10;;;;;;;3.87;2.40;;;;;;;;;;5027610;28;20194;-67
2023/11/28 07:48:35;;;;;;;6.57;2.40;;;;;;;;;;5025852;28;20170;-67
2023/11/28 07:51:01;;;;;;;4.57;2.13;;;;;;;;;;5028230;28;20541;-68
2023/11/28 07:53:26;;;;;;;3.73;2.60;;;;;;;;;;5023121;28;20273;-67
2023/11/28 07:55:51;;;;;;;3.47;1.93;;;;;;;;;;5033974;28;20583;-67
2023/11/28 07:58:17;;;;;;;9.20;2.63;;;;;;;;;;5010406;28;20258;-68
2023/11/28 08:00:42;;;;;;;2.40;2.00;;;;;;;;;;5021267;28;20175;-67
2023/11/28 08:03:09;;;;;;;4.13;2.10;;;;;;;;;;5023182;28;20214;-67
2023/11/28 08:05:34;;;;;;;3.47;2.10;;;;;;;;;;5003073;28;20209;-67
2023/11/28 08:07:59;;;;;;;3.23;2.63;;;;;;;;;;5023597;28;20190;-67
2023/11/28 08:10:24;;;;;;;4.60;2.27;;;;;;;;;;5004550;28;20329;-67
2023/11/28 08:12:50;;;;;;;4.40;2.60;;;;;;;;;;5029368;28;20198;-67
2023/11/28 08:15:15;;;;;;;4.87;2.37;;;;;;;;;;5023658;28;20182;-67
2023/11/28 08:17:43;;;;;;;3.17;2.87;;;;;;;;;;5028163;28;20179;-68
2023/11/28 08:20:08;;;;;;;5.93;2.60;;;;;;;;;;5028320;28;20182;-68
2023/11/28 08:22:34;;;;;;;4.67;2.43;;;;;;;;;;5022432;28;20259;-67
2023/11/28 08:25:00;;;;;;;5.20;3.23;;;;;;;;;;5023868;28;20224;-67
2023/11/28 08:27:26;;;;;;;6.57;2.60;;;;;;;;;;5020180;28;20212;-67
2023/11/28 08:29:51;;;;;;;4.37;2.57;;;;;;;;;;5024024;28;20678;-67
2023/11/28 08:32:18;;;;;;;6.57;3.33;;;;;;;;;;5019398;28;20827;-67
2023/11/28 08:34:43;;;;;;;7.47;2.80;;;;;;;;;;5018392;28;20182;-67
2023/11/28 08:37:08;;;;;;;4.50;2.87;;;;;;;;;;5006369;28;20740;-67
2023/11/28 08:39:33;;;;;;;5.60;2.83;;;;;;;;;;5021619;28;20186;-67
2023/11/28 08:41:59;;;;;;;3.23;2.50;;;;;;;;;;5021581;28;20203;-67
2023/11/28 08:44:25;;;;;;;5.57;2.47;;;;;;;;;;5022972;28;20205;-69
2023/11/28 08:46:50;;;;;;;5.57;2.43;;;;;;;;;;5019735;28;20646;-67
2023/11/28 08:49:16;;;;;;;4.40;2.57;;;;;;;;;;5024639;28;20606;-67
2023/11/28 08:51:41;;;;;;;3.33;2.40;;;;;;;;;;5021057;28;20202;-67
2023/11/28 08:54:07;;;;;;;7.50;2.97;;;;;;;;;;5025076;28;20773;-67
2023/11/28 08:56:32;;;;;;;9.07;2.47;;;;;;;;;;5018265;28;20671;-67
2023/11/28 08:58:57;;;;;;;3.60;2.43;;;;;;;;;;5020933;28;20190;-67
2023/11/28 09:01:22;;;;;;;6.30;2.70;;;;;;;;;;5021680;28;20571;-67
2023/11/28 09:03:50;;;;;;;4.67;2.67;;;;;;;;;;5026239;28;20174;-67
2023/11/28 09:06:15;;;;;;;3.90;2.33;;;;;;;;;;5028448;28;20186;-67
2023/11/28 09:08:41;;;;;;;5.60;2.60;;;;;;;;;;5028378;28;20185;-67
2023/11/28 09:11:06;;;;;;;3.33;2.20;;;;;;;;;;5032037;28;20216;-67
2023/11/28 09:13:32;;;;;;;5.10;2.63;;;;;;;;;;5027430;28;20188;-67
2023/11/28 09:16:00;;;;;;;7.07;2.40;;;;;;;;;;5032697;28;20254;-67
2023/11/28 09:18:25;;;;;;;4.57;2.70;;;;;;;;;;5029011;28;20508;-67
2023/11/28 09:20:50;;;;;;;4.03;2.93;;;;;;;;;;5028617;28;20182;-67
2023/11/28 09:23:16;;;;;;;3.00;2.70;;;;;;;;;;5029809;28;20210;-67
2023/11/28 09:25:41;;;;;;;2.17;1.93;;;;;;;;;;5024047;28;20171;-67
2023/11/28 09:28:06;;;;;;;2.37;1.90;;;;;;;;;;5032639;28;20178;-67
2023/11/28 09:30:31;;;;;;;2.33;1.50;;;;;;;;;;5030773;28;20202;-67
2023/11/28 09:32:56;;;;;;;5.77;2.13;;;;;;;;;;5031142;28;20194;-67
2023/11/28 09:35:22;;;;;;;2.37;1.50;;;;;;;;;;5024928;28;20645;-67
2023/11/28 09:37:47;;;;;;;4.73;1.60;;;;;;;;;;5027478;28;20178;-67
2023/11/28 09:40:12;;;;;;;2.50;1.57;;;;;;;;;;5028092;28;20305;-67
2023/11/28 09:42:39;;;;;;;1.60;1.40;;;;;;;;;;5026422;28;20253;-67
2023/11/28 09:45:05;;;;;;;2.37;1.87;;;;;;;;;;5023346;28;20194;-67
2023/11/28 09:47:35;;;;;;;2.70;1.40;;;;;;;;;;5027861;28;20194;-67
2023/11/28 09:50:00;;;;;;;3.43;1.67;;;;;;;;;;5007139;28;20210;-67
2023/11/28 09:52:28;;;;;;;3.30;1.87;;;;;;;;;;5027466;28;20214;-67
2023/11/28 09:54:54;;;;;;;2.03;1.73;;;;;;;;;;5018319;28;20179;-67
2023/11/28 09:57:20;;;;;;;2.50;1.40;;;;;;;;;;5032681;28;20822;-67
2023/11/28 09:59:48;;;;;;;3.10;1.50;;;;;;;;;;5032637;28;20261;-67
2023/11/28 10:02:14;;;;;;;3.67;1.77;;;;;;;;;;5009715;28;20213;-67
2023/11/28 10:04:40;;;;;;;1.70;1.60;;;;;;;;;;5022005;28;20190;-68
2023/11/28 10:07:07;;;;;;;2.27;1.40;;;;;;;;;;5025312;28;20188;-66
2023/11/28 10:09:33;;;;;;;1.87;1.43;;;;;;;;;;5024895;28;20697;-66
2023/11/28 10:11:59;;;;;;;4.00;1.33;;;;;;;;;;5002829;28;20213;-66
2023/11/28 10:14:24;;;;;;;3.73;1.63;;;;;;;;;;5027225;28;20175;-67
2023/11/28 10:16:51;;;;;;;1.80;1.50;;;;;;;;;;5020397;28;20181;-67
2023/11/28 10:19:17;;;;;;;2.40;1.53;;;;;;;;;;5029823;28;20575;-67
2023/11/28 10:21:42;;;;;;;2.50;1.40;;;;;;;;;;5023105;28;20194;-67
2023/11/28 10:24:10;;;;;;;2.83;1.23;;;;;;;;;;5031488;28;20672;-67
2023/11/28 10:26:39;;;;;;;3.30;1.30;;;;;;;;;;5025436;28;20189;-67
2023/11/28 10:29:07;;;;;;;6.93;1.80;;;;;;;;;;5002095;28;20187;-67
2023/11/28 10:31:36;;;;;;;2.92;1.48;;;;;;;;;;5029339;28;20202;-67
2023/11/28 10:34:01;;;;;;;2.95;1.73;;;;;;;;;;5008759;28;20586;-67
2023/11/28 10:36:27;;;;;;;2.65;1.80;;;;;;;;;;5026982;28;20228;-67
2023/11/28 10:38:53;;;;;;;7.63;1.90;;;;;;;;;;5020875;28;20179;-67
2023/11/28 10:41:18;;;;;;;2.97;1.65;;;;;;;;;;5027901;28;20206;-68
2023/11/28 10:43:45;;;;;;;2.10;1.52;;;;;;;;;;5025927;28;20178;-67
2023/11/28 10:46:11;;;;;;;3.75;1.30;;;;;;;;;;5031554;28;20198;-67
2023/11/28 10:48:38;;;;;;;1.85;1.50;;;;;;;;;;5032174;28;20178;-67
2023/11/28 10:51:03;;;;;;;1.92;1.73;;;;;;;;;;5031353;28;20198;-67
2023/11/28 10:53:30;;;;;;;5.22;1.90;;;;;;;;;;5028691;28;20182;-67
2023/11/28 10:55:56;;;;;;;2.88;2.28;;;;;;;;;;5031965;28;20220;-67
2023/11/28 10:58:21;;;;;;;4.25;2.35;;;;;;;;;;5029695;28;20212;-68
2023/11/28 11:00:52;;;;;;;4.75;2.00;;;;;;;;;;5031966;28;20213;-67
2023/11/28 11:03:18;;;;;;;1.52;1.40;;;;;;;;;;5028883;28;20277;-67
2023/11/28 11:05:44;;;;;;;4.27;1.47;;;;;;;;;;5030878;28;20186;-67
2023/11/28 11:08:09;;;;;;;1.87;1.43;;;;;;;;;;5026995;28;20184;-67
2023/11/28 11:10:35;;;;;;;1.27;1.17;;;;;;;;;;5004177;28;20253;-67
2023/11/28 11:13:13;;;;;;;3.77;1.53;;;;;;;;;;5029763;28;20811;-67
2023/11/28 11:15:41;;;;;;;2.47;1.93;;;;;;;;;;5028029;28;20178;-67
2023/11/28 11:18:19;;;;;;;5.07;1.90;;;;;;;;;;5024786;28;20175;-67
2023/11/28 11:20:48;;;;;;;2.47;1.63;;;;;;;;;;5024219;28;20183;-67
2023/11/28 11:23:15;;;;;;;3.27;1.70;;;;;;;;;;5026678;28;20237;-67
2023/11/28 11:25:43;;;;;;;4.13;1.63;;;;;;;;;;5011734;28;20186;-67
2023/11/28 11:28:08;;;;;;;3.60;1.80;;;;;;;;;;5024510;28;20186;-67
2023/11/28 11:30:37;;;;;;;3.57;1.67;;;;;;;;;;5025091;28;20737;-67
2023/11/28 11:33:04;;;;;;;1.80;1.50;;;;;;;;;;5025575;28;20194;-66
2023/11/28 11:35:30;;;;;;;2.40;2.00;;;;;;;;;;5025274;28;20178;-67
2023/11/28 11:37:55;;;;;;;3.23;1.40;;;;;;;;;;5008558;28;20197;-67
2023/11/28 11:40:20;;;;;;;3.17;1.70;;;;;;;;;;5023297;28;20193;-67
2023/11/28 11:42:46;;;;;;;8.13;1.90;;;;;;;;;;5018231;28;20577;-67
2023/11/28 11:45:11;;;;;;;2.75;1.70;;;;;;;;;;5029172;28;20183;-67
2023/11/28 11:47:36;;;;;;;3.20;1.42;;;;;;;;;;5026150;28;20190;-67
2023/11/28 11:50:05;;;;;;;4.82;1.70;;;;;;;;;;5028003;28;20209;-67
2023/11/28 11:52:31;;;;;;;2.20;1.35;;;;;;;;;;5022453;28;20210;-67
2023/11/28 11:55:07;;;;;;;3.38;1.60;;;;;;;;;;5024288;28;20198;-67
2023/11/28 11:57:32;;;;;;;1.77;1.33;;;;;;;;;;5023863;28;20583;-67
2023/11/28 11:59:58;;;;;;;1.90;1.55;;;;;;;;;;5030337;28;20236;-67
2023/11/28 12:02:34;;;;;;;3.58;1.95;;;;;;;;;;5005628;28;20709;-67
2023/11/28 12:04:59;;;;;;;5.45;1.30;;;;;;;;;;5027011;28;20639;-68
2023/11/28 12:07:24;;;;;;;2.63;1.40;;;;;;;;;;5008380;28;20174;-68
2023/11/28 12:09:49;;;;;;;3.38;1.60;;;;;;;;;;5027174;28;20206;-68
2023/11/28 12:12:14;;;;;;;3.22;1.50;;;;;;;;;;5027008;28;20197;-67
2023/11/28 12:14:40;;;;;;;2.72;1.67;;;;;;;;;;5027543;28;20523;-68
2023/11/28 12:17:06;;;;;;;1.85;1.00;;;;;;;;;;5028974;28;20185;-68
2023/11/28 12:19:32;;;;;;;1.90;1.55;;;;;;;;;;5025964;28;20186;-67
2023/11/28 12:21:57;;;;;;;2.58;1.40;;;;;;;;;;5004209;28;20210;-67
2023/11/28 12:24:23;;;;;;;2.78;1.75;;;;;;;;;;5027040;28;20182;-67
2023/11/28 12:26:48;;;;;;;3.80;1.48;;;;;;;;;;5025823;28;20661;-67
2023/11/28 12:29:14;;;;;;;2.85;1.23;;;;;;;;;;5011018;28;20190;-67
2023/11/28 12:31:39;;;;;;;2.63;1.73;;;;;;;;;;5021190;28;20206;-67
2023/11/28 12:34:06;;;;;;;3.17;1.60;;;;;;;;;;5028100;28;20320;-69
2023/11/28 12:36:31;;;;;;;2.78;1.48;;;;;;;;;;5024323;28;20221;-66
2023/11/28 12:39:01;;;;;;;2.40;1.40;;;;;;;;;;5025829;28;20175;-66
2023/11/28 12:41:33;;;;;;;1.88;1.38;;;;;;;;;;5008296;28;20210;-66
2023/11/28 12:43:59;;;;;;;3.60;1.63;;;;;;;;;;5007534;28;20189;-68
2023/11/28 12:46:24;;;;;;;1.70;1.40;;;;;;;;;;5014910;28;20186;-69
2023/11/28 12:48:49;;;;;;;2.35;1.50;;;;;;;;;;5026329;28;20182;-69
2023/11/28 12:51:15;;;;;;;1.95;1.25;;;;;;;;;;5031991;28;20214;-67
2023/11/28 12:53:41;;;;;;;3.58;1.70;;;;;;;;;;5025430;28;20549;-68
2023/11/28 12:56:07;;;;;;;2.63;1.55;;;;;;;;;;5025125;28;20194;-68
2023/11/28 12:58:32;;;;;;;2.63;1.70;;;;;;;;;;5030957;28;20256;-67
2023/11/28 13:00:57;;;;;;;2.10;1.57;;;;;;;;;;5008991;28;20195;-67
2023/11/28 13:03:22;;;;;;;2.17;1.70;;;;;;;;;;5031038;28;20186;-67
2023/11/28 13:05:48;;;;;;;3.47;1.40;;;;;;;;;;5029926;28;20194;-68
2023/11/28 13:08:16;;;;;;;2.17;1.47;;;;;;;;;;5026865;28;20612;-67
2023/11/28 13:10:41;;;;;;;2.40;1.80;;;;;;;;;;5030827;28;20586;-68
2023/11/28 13:13:06;;;;;;;2.30;1.40;;;;;;;;;;5030513;28;20205;-67
2023/11/28 13:15:31;;;;;;;2.67;1.60;;;;;;;;;;5029392;28;20179;-67
2023/11/28 13:17:57;;;;;;;4.00;1.87;;;;;;;;;;5026559;28;20298;-67
2023/11/28 13:20:22;;;;;;;4.00;1.93;;;;;;;;;;5026911;28;20221;-67
2023/11/28 13:22:48;;;;;;;1.90;1.60;;;;;;;;;;5027043;28;20569;-67
2023/11/28 13:25:13;;;;;;;2.30;1.67;;;;;;;;;;5029948;28;20608;-67
2023/11/28 13:27:39;;;;;;;3.17;1.67;;;;;;;;;;5031744;28;20677;-67
2023/11/28 13:30:06;;;;;;;2.90;1.80;;;;;;;;;;5024995;28;20199;-67
2023/11/28 13:32:32;;;;;;;2.53;1.90;;;;;;;;;;5029687;28;20310;-67
2023/11/28 13:34:57;;;;;;;6.60;1.93;;;;;;;;;;5024068;28;20701;-67
2023/11/28 13:37:22;;;;;;;2.13;1.53;;;;;;;;;;5028968;28;20501;-67
2023/11/28 13:39:48;;;;;;;2.23;1.50;;;;;;;;;;5023897;28;20193;-67
2023/11/28 13:42:13;;;;;;;2.30;1.53;;;;;;;;;;5028282;28;20301;-67
2023/11/28 13:44:38;;;;;;;3.70;1.90;;;;;;;;;;5027509;28;20214;-67
2023/11/28 13:47:04;;;;;;;3.50;2.37;;;;;;;;;;5024911;28;20694;-67
2023/11/28 13:49:29;;;;;;;2.90;1.73;;;;;;;;;;5028656;28;20704;-68
2023/11/28 13:51:54;;;;;;;2.28;1.40;;;;;;;;;;5021496;28;20203;-67
2023/11/28 13:54:20;;;;;;;4.37;1.47;;;;;;;;;;5029602;28;20661;-68
2023/11/28 13:56:45;;;;;;;3.00;1.60;;;;;;;;;;5024469;28;20250;-67
2023/11/28 13:59:10;;;;;;;3.60;1.93;;;;;;;;;;5032440;28;20175;-67
2023/11/28 14:01:35;;;;;;;3.53;1.53;;;;;;;;;;5026667;28;20252;-67
2023/11/28 14:04:01;;;;;;;3.70;1.70;;;;;;;;;;5029491;28;20181;-68
2023/11/28 14:06:27;;;;;;;5.77;2.57;;;;;;;;;;5028991;28;20206;-67
2023/11/28 14:08:52;;;;;;;6.13;2.60;;;;;;;;;;5023799;28;20210;-68
2023/11/28 14:11:17;;;;;;;4.77;1.87;;;;;;;;;;5010950;28;20210;-67
2023/11/28 14:13:42;;;;;;;3.40;1.60;;;;;;;;;;5030370;28;20202;-67
2023/11/28 14:16:07;;;;;;;3.30;1.97;;;;;;;;;;5029637;28;20232;-67
2023/11/28 14:18:33;;;;;;;2.37;1.90;;;;;;;;;;5025833;28;20185;-67
2023/11/28 14:21:00;;;;;;;2.40;1.50;;;;;;;;;;5026403;28;20704;-67
2023/11/28 14:23:26;;;;;;;2.63;1.93;;;;;;;;;;5005305;28;20193;-67
2023/11/28 14:25:51;;;;;;;4.73;2.23;;;;;;;;;;5028875;28;20185;-67
2023/11/28 14:28:16;;;;;;;3.30;1.87;;;;;;;;;;5026573;28;20174;-68
2023/11/28 14:30:42;;;;;;;3.63;2.17;;;;;;;;;;5026320;28;20656;-68
2023/11/28 14:33:10;;;;;;;2.17;1.40;;;;;;;;;;5025576;28;20239;-68